| time (UTC) | temp C | wind direction | speed KPH | gust KPH | rain 1hr cm | rain 24hr cm | rain mn cm | humidity % | barometer mb |
| 20260508051840 | 8 | 256 | 1.6 | 4.8 | 0.00 | 0.38 | 0.00 | 97 | 1014.8 |
| 20260508050840 | 8 | 109 | 3.2 | 6.4 | 0.00 | 0.38 | 0.00 | 98 | 1014.7 |
| 20260508045839 | 8 | 124 | 3.2 | 4.8 | 0.00 | 0.38 | 0.00 | 99 | 1014.7 |
| 20260508044844 | 8 | 251 | 1.6 | 1.6 | 0.00 | 0.38 | 0.00 | 99 | 1014.7 |
| 20260508043840 | 8 | 330 | 1.6 | 3.2 | 0.00 | 0.38 | 0.00 | 100 | 1014.7 |
| 20260508042840 | 7 | 253 | 1.6 | 3.2 | 0.00 | 0.38 | 0.00 | 99 | 1014.7 |
| 20260508041840 | 7 | 300 | 1.6 | 3.2 | 0.00 | 0.38 | 0.00 | 99 | 1014.7 |
| 20260508040840 | 7 | 308 | 1.6 | 3.2 | 0.00 | 0.38 | 0.00 | 99 | 1014.7 |
| 20260508035830 | 7 | 276 | 1.6 | 3.2 | 0.00 | 0.38 | 0.00 | 98 | 1014.6 |
| 20260508034829 | 7 | 5 | 1.6 | 4.8 | 0.00 | 0.38 | 0.00 | 98 | 1014.6 |
| 20260508033829 | 7 | 43 | 1.6 | 4.8 | 0.00 | 0.38 | 0.00 | 98 | 1014.6 |
| 20260508032829 | 7 | 7 | 1.6 | 3.2 | 0.03 | 0.38 | 0.00 | 97 | 1014.6 |
| 20260508031829 | 7 | 270 | 3.2 | 4.8 | 0.03 | 0.38 | 0.00 | 97 | 1014.6 |
| 20260508030829 | 7 | 317 | 1.6 | 3.2 | 0.03 | 0.38 | 0.00 | 97 | 1014.6 |
| 20260508025829 | 8 | 280 | 1.6 | 3.2 | 0.03 | 0.38 | 0.38 | 97 | 1014.7 |
| 20260508024829 | 8 | 26 | 1.6 | 3.2 | 0.03 | 0.38 | 0.38 | 97 | 1014.7 |
| 20260508023829 | 8 | 286 | 1.6 | 1.6 | 0.03 | 0.38 | 0.38 | 96 | 1014.7 |
| 20260508022829 | 8 | 9 | 1.6 | 4.8 | 0.00 | 0.36 | 0.36 | 96 | 1014.7 |
| 20260508021829 | 8 | 333 | 1.6 | 3.2 | 0.00 | 0.36 | 0.36 | 96 | 1014.6 |
| 20260508020828 | 8 | 320 | 1.6 | 1.6 | 0.00 | 0.36 | 0.36 | 96 | 1014.7 |
| 20260508015829 | 8 | 207 | 1.6 | 1.6 | 0.00 | 0.36 | 0.36 | 96 | 1014.7 |
| 20260508014829 | 8 | 252 | 1.6 | 4.8 | 0.00 | 0.36 | 0.36 | 95 | 1014.7 |
| 20260508013829 | 8 | 333 | 1.6 | 4.8 | 0.00 | 0.36 | 0.36 | 95 | 1014.8 |
| 20260508012828 | 8 | 328 | 1.6 | 8.0 | 0.00 | 0.36 | 0.36 | 95 | 1014.7 |
| 20260508011828 | 8 | 299 | 1.6 | 4.8 | 0.00 | 0.36 | 0.36 | 95 | 1014.8 |
| 20260508010829 | 8 | 322 | 3.2 | 4.8 | 0.00 | 0.36 | 0.36 | 95 | 1014.9 |
| 20260508005828 | 8 | 321 | 3.2 | 6.4 | 0.00 | 0.36 | 0.36 | 95 | 1014.9 |
| 20260508004828 | 8 | 317 | 3.2 | 6.4 | 0.00 | 0.36 | 0.36 | 94 | 1014.9 |
| 20260508003828 | 9 | 302 | 0.0 | 1.6 | 0.00 | 0.36 | 0.36 | 94 | 1014.9 |
| 20260508002849 | 9 | 341 | 1.6 | 3.2 | 0.00 | 0.36 | 0.36 | 93 | 1014.9 |
| 20260508001828 | 9 | 33 | 1.6 | 3.2 | 0.00 | 0.36 | 0.36 | 93 | 1014.9 |
| 20260508000828 | 9 | 300 | 1.6 | 1.6 | 0.00 | 0.36 | 0.36 | 93 | 1015.0 |
| 20260507235848 | 9 | 116 | 1.6 | 3.2 | 0.00 | 0.36 | 0.36 | 93 | 1015.0 |
| 20260507234828 | 9 | 5 | 3.2 | 6.4 | 0.03 | 0.36 | 0.36 | 93 | 1015.0 |
| 20260507233828 | 9 | 24 | 3.2 | 4.8 | 0.08 | 0.36 | 0.36 | 93 | 1015.0 |
| 20260507232828 | 9 | 32 | 1.6 | 4.8 | 0.15 | 0.36 | 0.36 | 93 | 1015.0 |
| 20260507231828 | 10 | 127 | 3.2 | 6.4 | 0.23 | 0.36 | 0.36 | 93 | 1015.0 |
| 20260507230829 | 10 | 28 | 3.2 | 4.8 | 0.23 | 0.36 | 0.36 | 92 | 1015.0 |
| 20260507225828 | 10 | 1 | 1.6 | 3.2 | 0.23 | 0.36 | 0.36 | 91 | 1014.9 |
| 20260507224828 | 10 | 28 | 1.6 | 3.2 | 0.30 | 0.33 | 0.33 | 91 | 1014.9 |
| 20260507223848 | 10 | 214 | 4.8 | 9.7 | 0.23 | 0.28 | 0.28 | 90 | 1015.0 |
| 20260507222848 | 9 | 198 | 6.4 | 12.9 | 0.15 | 0.20 | 0.20 | 90 | 1015.0 |
| 20260507221828 | 10 | 248 | 3.2 | 8.0 | 0.10 | 0.13 | 0.13 | 89 | 1015.0 |
| 20260507220827 | 9 | 357 | 1.6 | 3.2 | 0.10 | 0.13 | 0.13 | 88 | 1015.0 |
| 20260507215827 | 9 | 357 | 1.6 | 6.4 | 0.08 | 0.13 | 0.13 | 88 | 1015.0 |
| 20260507214827 | 9 | 321 | 3.2 | 9.7 | 0.00 | 0.05 | 0.05 | 88 | 1014.9 |
| 20260507213828 | 10 | 21 | 3.2 | 4.8 | 0.00 | 0.05 | 0.05 | 88 | 1014.9 |
| 20260507212831 | 10 | 340 | 3.2 | 8.0 | 0.00 | 0.05 | 0.05 | 86 | 1014.8 |
| 20260507211831 | 10 | 358 | 1.6 | 4.8 | 0.00 | 0.05 | 0.05 | 86 | 1014.8 |
| 20260507210831 | 10 | 16 | 3.2 | 4.8 | 0.00 | 0.05 | 0.05 | 85 | 1014.7 |
| 20260507205831 | 10 | 31 | 4.8 | 6.4 | 0.00 | 0.05 | 0.05 | 83 | 1014.7 |
| 20260507204831 | 10 | 30 | 3.2 | 6.4 | 0.00 | 0.05 | 0.05 | 82 | 1014.5 |
| 20260507203832 | 10 | 63 | 1.6 | 4.8 | 0.00 | 0.05 | 0.05 | 82 | 1014.5 |
| 20260507202911 | 10 | 90 | 3.2 | 9.7 | 0.03 | 0.05 | 0.05 | 84 | 1014.4 |
| 20260507201831 | 10 | 41 | 4.8 | 9.7 | 0.05 | 0.05 | 0.05 | 86 | 1014.3 |
| 20260507200831 | 10 | 356 | 4.8 | 8.0 | 0.05 | 0.05 | 0.05 | 84 | 1014.3 |
| 20260507195831 | 10 | 351 | 4.8 | 9.7 | 0.05 | 0.05 | 0.05 | 83 | 1014.3 |
| 20260507194831 | 10 | 334 | 4.8 | 12.9 | 0.05 | 0.05 | 0.05 | 79 | 1014.2 |
| 20260507193831 | 10 | 314 | 4.8 | 8.0 | 0.05 | 0.05 | 0.05 | 74 | 1014.2 |
| 20260507192831 | 11 | 307 | 6.4 | 12.9 | 0.03 | 0.03 | 0.03 | 68 | 1014.2 |
| 20260507191831 | 11 | 208 | 8.0 | 12.9 | 0.00 | 0.00 | 0.00 | 61 | 1014.0 |
| 20260507190831 | 11 | 200 | 6.4 | 12.9 | 0.00 | 0.00 | 0.00 | 63 | 1014.0 |
| 20260507185836 | 11 | 201 | 8.0 | 14.5 | 0.00 | 0.00 | 0.00 | 64 | 1014.0 |
| 20260507184836 | 11 | 206 | 8.0 | 16.1 | 0.00 | 0.00 | 0.00 | 64 | 1013.9 |
| 20260507183830 | 11 | 198 | 9.7 | 14.5 | 0.00 | 0.00 | 0.00 | 63 | 1014.0 |
| 20260507182830 | 11 | 205 | 9.7 | 19.3 | 0.00 | 0.00 | 0.00 | 64 | 1014.0 |
| 20260507181831 | 11 | 207 | 9.7 | 17.7 | 0.00 | 0.00 | 0.00 | 65 | 1014.0 |
| 20260507180851 | 11 | 199 | 11.3 | 22.5 | 0.00 | 0.00 | 0.00 | 65 | 1013.9 |
| 20260507175831 | 11 | 190 | 14.5 | 22.5 | 0.00 | 0.00 | 0.00 | 65 | 1013.9 |
| 20260507174835 | 11 | 190 | 12.9 | 19.3 | 0.00 | 0.00 | 0.00 | 66 | 1013.9 |
| 20260507173831 | 12 | 192 | 12.9 | 24.1 | 0.00 | 0.00 | 0.00 | 64 | 1013.8 |
| 20260507172830 | 12 | 191 | 9.7 | 16.1 | 0.00 | 0.00 | 0.00 | 62 | 1013.8 |
| 20260507171830 | 12 | 218 | 8.0 | 19.3 | 0.00 | 0.00 | 0.00 | 61 | 1013.8 |
| 20260507170830 | 12 | 199 | 9.7 | 20.9 | 0.00 | 0.00 | 0.00 | 62 | 1013.8 |
| 20260507165830 | 12 | 195 | 8.0 | 16.1 | 0.00 | 0.00 | 0.00 | 61 | 1013.9 |
| 20260507164850 | 12 | 203 | 8.0 | 17.7 | 0.00 | 0.00 | 0.00 | 60 | 1014.0 |
| 20260507163850 | 12 | 202 | 11.3 | 22.5 | 0.00 | 0.00 | 0.00 | 59 | 1013.9 |
| 20260507162830 | 12 | 196 | 12.9 | 22.5 | 0.00 | 0.00 | 0.00 | 58 | 1013.8 |
| 20260507161830 | 12 | 188 | 14.5 | 24.1 | 0.00 | 0.00 | 0.00 | 59 | 1013.7 |
| 20260507160830 | 12 | 184 | 14.5 | 22.5 | 0.00 | 0.00 | 0.00 | 58 | 1013.8 |
| 20260507155830 | 12 | 192 | 14.5 | 25.7 | 0.00 | 0.00 | 0.00 | 58 | 1013.7 |
| 20260507154830 | 12 | 196 | 12.9 | 27.4 | 0.00 | 0.00 | 0.00 | 55 | 1013.8 |
| 20260507153830 | 12 | 204 | 12.9 | 25.7 | 0.00 | 0.00 | 0.00 | 50 | 1013.8 |
| 20260507152830 | 12 | 208 | 14.5 | 25.7 | 0.00 | 0.00 | 0.00 | 47 | 1013.8 |
| 20260507151830 | 12 | 194 | 12.9 | 20.9 | 0.00 | 0.00 | 0.00 | 49 | 1013.9 |
| 20260507150850 | 12 | 206 | 12.9 | 29.0 | 0.00 | 0.00 | 0.00 | 48 | 1014.0 |
| 20260507145850 | 12 | 217 | 12.9 | 20.9 | 0.00 | 0.00 | 0.00 | 55 | 1014.0 |
| 20260507144850 | 12 | 204 | 11.3 | 27.4 | 0.00 | 0.00 | 0.00 | 54 | 1014.0 |
| 20260507143834 | 12 | 227 | 9.7 | 17.7 | 0.00 | 0.00 | 0.00 | 55 | 1014.1 |
| 20260507142850 | 11 | 190 | 14.5 | 30.6 | 0.00 | 0.00 | 0.00 | 61 | 1014.2 |
| 20260507141849 | 12 | 186 | 16.1 | 24.1 | 0.00 | 0.00 | 0.00 | 62 | 1014.1 |
| 20260507140830 | 12 | 189 | 14.5 | 27.4 | 0.00 | 0.00 | 0.00 | 61 | 1014.2 |
| 20260507135830 | 11 | 190 | 16.1 | 29.0 | 0.00 | 0.00 | 0.00 | 61 | 1014.2 |
| 20260507134829 | 11 | 191 | 17.7 | 29.0 | 0.00 | 0.00 | 0.00 | 63 | 1014.2 |
| 20260507133830 | 11 | 192 | 19.3 | 32.2 | 0.00 | 0.00 | 0.00 | 66 | 1014.2 |
| 20260507132830 | 12 | 193 | 14.5 | 24.1 | 0.00 | 0.00 | 0.00 | 63 | 1014.3 |
| 20260507131829 | 11 | 192 | 16.1 | 27.4 | 0.00 | 0.00 | 0.00 | 59 | 1014.2 |
| 20260507130829 | 11 | 189 | 16.1 | 25.7 | 0.00 | 0.00 | 0.00 | 59 | 1014.3 |
| 20260507125829 | 12 | 189 | 14.5 | 25.7 | 0.00 | 0.00 | 0.00 | 58 | 1014.4 |
| 20260507124849 | 12 | 189 | 14.5 | 22.5 | 0.00 | 0.00 | 0.00 | 59 | 1014.4 |
| 20260507123829 | 12 | 197 | 12.9 | 25.7 | 0.00 | 0.00 | 0.00 | 59 | 1014.5 |
| 20260507122849 | 12 | 187 | 14.5 | 25.7 | 0.00 | 0.00 | 0.00 | 60 | 1014.4 |
| 20260507121829 | 11 | 186 | 11.3 | 24.1 | 0.00 | 0.00 | 0.00 | 56 | 1014.4 |
| 20260507120829 | 11 | 191 | 14.5 | 24.1 | 0.00 | 0.00 | 0.00 | 59 | 1014.4 |
| 20260507115829 | 12 | 191 | 14.5 | 22.5 | 0.00 | 0.00 | 0.00 | 58 | 1014.4 |
| 20260507114829 | 11 | 191 | 14.5 | 24.1 | 0.00 | 0.00 | 0.00 | 61 | 1014.4 |
| 20260507113829 | 11 | 192 | 11.3 | 20.9 | 0.00 | 0.00 | 0.00 | 62 | 1014.4 |
| 20260507112829 | 11 | 194 | 12.9 | 24.1 | 0.00 | 0.00 | 0.00 | 65 | 1014.4 |
| 20260507111849 | 11 | 193 | 14.5 | 25.7 | 0.00 | 0.00 | 0.00 | 66 | 1014.4 |
| 20260507110829 | 11 | 190 | 14.5 | 25.7 | 0.00 | 0.00 | 0.00 | 66 | 1014.4 |
| 20260507105829 | 11 | 187 | 14.5 | 24.1 | 0.00 | 0.00 | 0.00 | 62 | 1014.5 |
| 20260507104829 | 11 | 190 | 12.9 | 22.5 | 0.00 | 0.00 | 0.00 | 59 | 1014.5 |
| 20260507103829 | 11 | 193 | 12.9 | 22.5 | 0.00 | 0.00 | 0.00 | 61 | 1014.5 |
| 20260507102829 | 11 | 187 | 12.9 | 24.1 | 0.00 | 0.00 | 0.00 | 59 | 1014.5 |
| 20260507101829 | 11 | 179 | 11.3 | 19.3 | 0.00 | 0.00 | 0.00 | 61 | 1014.4 |
| 20260507100829 | 11 | 191 | 14.5 | 24.1 | 0.00 | 0.00 | 0.00 | 60 | 1014.4 |
| 20260507095829 | 11 | 192 | 11.3 | 20.9 | 0.00 | 0.00 | 0.00 | 64 | 1014.4 |
| 20260507094828 | 11 | 183 | 14.5 | 22.5 | 0.00 | 0.00 | 0.00 | 63 | 1014.3 |
| 20260507093829 | 11 | 188 | 14.5 | 24.1 | 0.00 | 0.00 | 0.00 | 64 | 1014.3 |
| 20260507092828 | 11 | 183 | 11.3 | 17.7 | 0.00 | 0.00 | 0.00 | 66 | 1014.3 |
| 20260507091829 | 11 | 178 | 8.0 | 12.9 | 0.00 | 0.00 | 0.00 | 68 | 1014.4 |
| 20260507090828 | 10 | 169 | 6.4 | 11.3 | 0.00 | 0.00 | 0.00 | 70 | 1014.4 |
| 20260507085828 | 10 | 148 | 6.4 | 11.3 | 0.00 | 0.00 | 0.00 | 73 | 1014.5 |
| 20260507084828 | 10 | 124 | 6.4 | 11.3 | 0.00 | 0.00 | 0.00 | 74 | 1014.4 |
| 20260507083828 | 10 | 88 | 8.0 | 14.5 | 0.00 | 0.00 | 0.00 | 75 | 1014.4 |
| 20260507082828 | 10 | 83 | 8.0 | 14.5 | 0.00 | 0.00 | 0.00 | 74 | 1014.4 |
| 20260507081853 | 10 | 110 | 6.4 | 14.5 | 0.00 | 0.00 | 0.00 | 73 | 1014.3 |
| 20260507080828 | 10 | 105 | 8.0 | 12.9 | 0.00 | 0.00 | 0.00 | 73 | 1014.3 |
| 20260507075828 | 10 | 108 | 8.0 | 12.9 | 0.00 | 0.00 | 0.00 | 69 | 1014.4 |
| 20260507074828 | 10 | 109 | 6.4 | 14.5 | 0.00 | 0.00 | 0.00 | 67 | 1014.3 |
| 20260507073828 | 10 | 101 | 4.8 | 11.3 | 0.00 | 0.00 | 0.00 | 69 | 1014.2 |
| 20260507072829 | 9 | 113 | 8.0 | 14.5 | 0.00 | 0.00 | 0.00 | 73 | 1014.3 |
| 20260507071828 | 9 | 102 | 6.4 | 12.9 | 0.00 | 0.00 | 0.00 | 76 | 1014.1 |
| 20260507070828 | 8 | 92 | 8.0 | 14.5 | 0.00 | 0.00 | 0.00 | 80 | 1014.1 |
| 20260507065828 | 8 | 80 | 9.7 | 14.5 | 0.00 | 0.00 | 0.00 | 81 | 1014.1 |
| 20260507064908 | 8 | 67 | 8.0 | 12.9 | 0.00 | 0.00 | 0.00 | 81 | 1014.1 |
| 20260507063828 | 8 | 80 | 4.8 | 8.0 | 0.00 | 0.00 | 0.00 | 81 | 1014.1 |
| 20260507062828 | 8 | 58 | 3.2 | 6.4 | 0.00 | 0.00 | 0.00 | 82 | 1014.0 |
| 20260507061828 | 7 | 37 | 4.8 | 8.0 | 0.00 | 0.00 | 0.00 | 82 | 1014.0 |
| 20260507060828 | 7 | 330 | 3.2 | 6.4 | 0.00 | 0.00 | 0.00 | 83 | 1014.0 |
| 20260507055828 | 7 | 270 | 3.2 | 4.8 | 0.00 | 0.00 | 0.00 | 82 | 1014.0 |
| 20260507054828 | 7 | 268 | 3.2 | 4.8 | 0.00 | 0.00 | 0.00 | 82 | 1013.9 |
| 20260507053828 | 6 | 238 | 4.8 | 8.0 | 0.00 | 0.00 | 0.00 | 81 | 1014.0 |
| 20260507052828 | 7 | 239 | 3.2 | 8.0 | 0.00 | 0.00 | 0.00 | 80 | 1013.9 |